<?xml version="1.0" encoding="UTF-8" standalone="no" ?>
<gpx xmlns="http://www.topografix.com/GPX/1/1" xmlns:xsi="http://www.w3.org/2001/XMLSchema-instance" xsi:schemaLocation="http://www.topografix.com/GPX/1/1 http://www.topografix.com/GPX/1/1/gpx.xsd" version="1.1" creator="VisuGPX - https://www.visugpx.com">
  <metadata>
    <name>Arthies 5  châteaux</name>
    <desc><![CDATA[Randonnée en boucle en Arthies]]></desc>
  </metadata>
  <trk>
    <name><![CDATA[20180804225213-5j854]]></name>
    <trkseg>
      <trkpt lat="49.09412" lon="1.78962">
        <ele>176</ele>
        <time>2018-08-04T22:46:41Z</time>
      </trkpt>
      <trkpt lat="49.09411" lon="1.78938">
        <ele>176</ele>
        <time>2018-08-04T22:47:41Z</time>
      </trkpt>
      <trkpt lat="49.09441" lon="1.78853">
        <ele>170</ele>
        <time>2018-08-04T22:48:41Z</time>
      </trkpt>
      <trkpt lat="49.09475" lon="1.78805">
        <ele>168</ele>
        <time>2018-08-04T22:49:41Z</time>
      </trkpt>
      <trkpt lat="49.09506" lon="1.78786">
        <ele>165</ele>
        <time>2018-08-04T22:50:41Z</time>
      </trkpt>
      <trkpt lat="49.09545" lon="1.78756">
        <ele>164</ele>
        <time>2018-08-04T22:51:41Z</time>
      </trkpt>
      <trkpt lat="49.09582" lon="1.78744">
        <ele>160</ele>
        <time>2018-08-04T22:52:41Z</time>
      </trkpt>
      <trkpt lat="49.09635" lon="1.78733">
        <ele>154</ele>
        <time>2018-08-04T22:53:41Z</time>
      </trkpt>
      <trkpt lat="49.09664" lon="1.78728">
        <ele>153</ele>
        <time>2018-08-04T22:54:41Z</time>
      </trkpt>
      <trkpt lat="49.09693" lon="1.78721">
        <ele>149</ele>
        <time>2018-08-04T22:55:41Z</time>
      </trkpt>
      <trkpt lat="49.09711" lon="1.78705">
        <ele>148</ele>
        <time>2018-08-04T22:56:41Z</time>
      </trkpt>
      <trkpt lat="49.09729" lon="1.78675">
        <ele>146</ele>
        <time>2018-08-04T22:57:41Z</time>
      </trkpt>
      <trkpt lat="49.09753" lon="1.78656">
        <ele>143</ele>
        <time>2018-08-04T22:58:41Z</time>
      </trkpt>
      <trkpt lat="49.0979" lon="1.78618">
        <ele>142</ele>
        <time>2018-08-04T22:59:41Z</time>
      </trkpt>
      <trkpt lat="49.09791" lon="1.78555">
        <ele>141</ele>
        <time>2018-08-04T23:00:41Z</time>
      </trkpt>
      <trkpt lat="49.09802" lon="1.78485">
        <ele>141</ele>
        <time>2018-08-04T23:01:41Z</time>
      </trkpt>
      <trkpt lat="49.09827" lon="1.78392">
        <ele>142</ele>
        <time>2018-08-04T23:02:41Z</time>
      </trkpt>
      <trkpt lat="49.0985" lon="1.78297">
        <ele>144</ele>
        <time>2018-08-04T23:03:41Z</time>
      </trkpt>
      <trkpt lat="49.09863" lon="1.78229">
        <ele>147</ele>
        <time>2018-08-04T23:04:41Z</time>
      </trkpt>
      <trkpt lat="49.0987" lon="1.78163">
        <ele>149</ele>
        <time>2018-08-04T23:05:41Z</time>
      </trkpt>
      <trkpt lat="49.09874" lon="1.78046">
        <ele>153</ele>
        <time>2018-08-04T23:06:41Z</time>
      </trkpt>
      <trkpt lat="49.09879" lon="1.77986">
        <ele>157</ele>
        <time>2018-08-04T23:07:41Z</time>
      </trkpt>
      <trkpt lat="49.0989" lon="1.77901">
        <ele>160</ele>
        <time>2018-08-04T23:08:41Z</time>
      </trkpt>
      <trkpt lat="49.09897" lon="1.77874">
        <ele>161</ele>
        <time>2018-08-04T23:09:41Z</time>
      </trkpt>
      <trkpt lat="49.09903" lon="1.77864">
        <ele>161</ele>
        <time>2018-08-04T23:10:41Z</time>
      </trkpt>
      <trkpt lat="49.09941" lon="1.77822">
        <ele>163</ele>
        <time>2018-08-04T23:11:41Z</time>
      </trkpt>
      <trkpt lat="49.09957" lon="1.77806">
        <ele>163</ele>
        <time>2018-08-04T23:12:41Z</time>
      </trkpt>
      <trkpt lat="49.09956" lon="1.77766">
        <ele>164</ele>
        <time>2018-08-04T23:13:41Z</time>
      </trkpt>
      <trkpt lat="49.09968" lon="1.77708">
        <ele>166</ele>
        <time>2018-08-04T23:14:41Z</time>
      </trkpt>
      <trkpt lat="49.0998" lon="1.77639">
        <ele>168</ele>
        <time>2018-08-04T23:15:41Z</time>
      </trkpt>
      <trkpt lat="49.09986" lon="1.77598">
        <ele>168</ele>
        <time>2018-08-04T23:16:41Z</time>
      </trkpt>
      <trkpt lat="49.09953" lon="1.77525">
        <ele>168</ele>
        <time>2018-08-04T23:17:41Z</time>
      </trkpt>
      <trkpt lat="49.09986" lon="1.77495">
        <ele>166</ele>
        <time>2018-08-04T23:18:41Z</time>
      </trkpt>
      <trkpt lat="49.09987" lon="1.77477">
        <ele>166</ele>
        <time>2018-08-04T23:19:41Z</time>
      </trkpt>
      <trkpt lat="49.09991" lon="1.77429">
        <ele>165</ele>
        <time>2018-08-04T23:20:41Z</time>
      </trkpt>
      <trkpt lat="49.09993" lon="1.77373">
        <ele>163</ele>
        <time>2018-08-04T23:21:41Z</time>
      </trkpt>
      <trkpt lat="49.09982" lon="1.77336">
        <ele>162</ele>
        <time>2018-08-04T23:22:41Z</time>
      </trkpt>
      <trkpt lat="49.09958" lon="1.77279">
        <ele>159</ele>
        <time>2018-08-04T23:23:41Z</time>
      </trkpt>
      <trkpt lat="49.09945" lon="1.77252">
        <ele>159</ele>
        <time>2018-08-04T23:24:41Z</time>
      </trkpt>
      <trkpt lat="49.09924" lon="1.77202">
        <ele>157</ele>
        <time>2018-08-04T23:25:41Z</time>
      </trkpt>
      <trkpt lat="49.09892" lon="1.77135">
        <ele>160</ele>
        <time>2018-08-04T23:26:41Z</time>
      </trkpt>
      <trkpt lat="49.09855" lon="1.77045">
        <ele>160</ele>
        <time>2018-08-04T23:27:41Z</time>
      </trkpt>
      <trkpt lat="49.09827" lon="1.76985">
        <ele>160</ele>
        <time>2018-08-04T23:28:41Z</time>
      </trkpt>
      <trkpt lat="49.09799" lon="1.76939">
        <ele>160</ele>
        <time>2018-08-04T23:29:41Z</time>
      </trkpt>
      <trkpt lat="49.09749" lon="1.76883">
        <ele>161</ele>
        <time>2018-08-04T23:30:41Z</time>
      </trkpt>
      <trkpt lat="49.09733" lon="1.76848">
        <ele>161</ele>
        <time>2018-08-04T23:31:41Z</time>
      </trkpt>
      <trkpt lat="49.0972" lon="1.76798">
        <ele>162</ele>
        <time>2018-08-04T23:32:41Z</time>
      </trkpt>
      <trkpt lat="49.09707" lon="1.76732">
        <ele>164</ele>
        <time>2018-08-04T23:33:41Z</time>
      </trkpt>
      <trkpt lat="49.09684" lon="1.76649">
        <ele>163</ele>
        <time>2018-08-04T23:34:41Z</time>
      </trkpt>
      <trkpt lat="49.09668" lon="1.76569">
        <ele>161</ele>
        <time>2018-08-04T23:35:41Z</time>
      </trkpt>
      <trkpt lat="49.0965" lon="1.76489">
        <ele>164</ele>
        <time>2018-08-04T23:36:41Z</time>
      </trkpt>
      <trkpt lat="49.09635" lon="1.7643">
        <ele>166</ele>
        <time>2018-08-04T23:37:41Z</time>
      </trkpt>
      <trkpt lat="49.09626" lon="1.76369">
        <ele>165</ele>
        <time>2018-08-04T23:38:41Z</time>
      </trkpt>
      <trkpt lat="49.096" lon="1.76332">
        <ele>165</ele>
        <time>2018-08-04T23:39:41Z</time>
      </trkpt>
      <trkpt lat="49.09567" lon="1.76267">
        <ele>167</ele>
        <time>2018-08-04T23:40:41Z</time>
      </trkpt>
      <trkpt lat="49.09567" lon="1.76239">
        <ele>166</ele>
        <time>2018-08-04T23:41:41Z</time>
      </trkpt>
      <trkpt lat="49.09544" lon="1.76206">
        <ele>167</ele>
        <time>2018-08-04T23:42:41Z</time>
      </trkpt>
      <trkpt lat="49.0952" lon="1.76142">
        <ele>167</ele>
        <time>2018-08-04T23:43:41Z</time>
      </trkpt>
      <trkpt lat="49.09519" lon="1.76087">
        <ele>168</ele>
        <time>2018-08-04T23:44:41Z</time>
      </trkpt>
      <trkpt lat="49.09514" lon="1.76019">
        <ele>171</ele>
        <time>2018-08-04T23:45:41Z</time>
      </trkpt>
      <trkpt lat="49.09512" lon="1.75985">
        <ele>174</ele>
        <time>2018-08-04T23:46:41Z</time>
      </trkpt>
      <trkpt lat="49.09509" lon="1.75925">
        <ele>177</ele>
        <time>2018-08-04T23:47:41Z</time>
      </trkpt>
      <trkpt lat="49.09505" lon="1.75859">
        <ele>182</ele>
        <time>2018-08-04T23:48:41Z</time>
      </trkpt>
      <trkpt lat="49.09497" lon="1.75751">
        <ele>190</ele>
        <time>2018-08-04T23:49:41Z</time>
      </trkpt>
      <trkpt lat="49.09497" lon="1.75708">
        <ele>193</ele>
        <time>2018-08-04T23:50:41Z</time>
      </trkpt>
      <trkpt lat="49.095" lon="1.75632">
        <ele>199</ele>
        <time>2018-08-04T23:51:41Z</time>
      </trkpt>
      <trkpt lat="49.09501" lon="1.75584">
        <ele>203</ele>
        <time>2018-08-04T23:52:41Z</time>
      </trkpt>
      <trkpt lat="49.09496" lon="1.75531">
        <ele>204</ele>
        <time>2018-08-04T23:53:41Z</time>
      </trkpt>
      <trkpt lat="49.09482" lon="1.75489">
        <ele>206</ele>
        <time>2018-08-04T23:54:41Z</time>
      </trkpt>
      <trkpt lat="49.09459" lon="1.75426">
        <ele>206</ele>
        <time>2018-08-04T23:55:41Z</time>
      </trkpt>
      <trkpt lat="49.09419" lon="1.75351">
        <ele>207</ele>
        <time>2018-08-04T23:56:41Z</time>
      </trkpt>
      <trkpt lat="49.09403" lon="1.7531">
        <ele>209</ele>
        <time>2018-08-04T23:57:41Z</time>
      </trkpt>
      <trkpt lat="49.0937" lon="1.75262">
        <ele>209</ele>
        <time>2018-08-04T23:58:41Z</time>
      </trkpt>
      <trkpt lat="49.09331" lon="1.75203">
        <ele>210</ele>
        <time>2018-08-04T23:59:41Z</time>
      </trkpt>
      <trkpt lat="49.09261" lon="1.7509">
        <ele>208</ele>
        <time>2018-08-05T00:00:41Z</time>
      </trkpt>
      <trkpt lat="49.0925" lon="1.75054">
        <ele>207</ele>
        <time>2018-08-05T00:01:41Z</time>
      </trkpt>
      <trkpt lat="49.09219" lon="1.74986">
        <ele>208</ele>
        <time>2018-08-05T00:02:41Z</time>
      </trkpt>
      <trkpt lat="49.09202" lon="1.74948">
        <ele>208</ele>
        <time>2018-08-05T00:03:41Z</time>
      </trkpt>
      <trkpt lat="49.09166" lon="1.74869">
        <ele>209</ele>
        <time>2018-08-05T00:04:41Z</time>
      </trkpt>
      <trkpt lat="49.09149" lon="1.74818">
        <ele>208</ele>
        <time>2018-08-05T00:05:41Z</time>
      </trkpt>
      <trkpt lat="49.09122" lon="1.74738">
        <ele>207</ele>
        <time>2018-08-05T00:06:41Z</time>
      </trkpt>
      <trkpt lat="49.09039" lon="1.74631">
        <ele>205</ele>
        <time>2018-08-05T00:07:41Z</time>
      </trkpt>
      <trkpt lat="49.09005" lon="1.74568">
        <ele>205</ele>
        <time>2018-08-05T00:08:41Z</time>
      </trkpt>
      <trkpt lat="49.08974" lon="1.74519">
        <ele>205</ele>
        <time>2018-08-05T00:09:41Z</time>
      </trkpt>
      <trkpt lat="49.08952" lon="1.74451">
        <ele>206</ele>
        <time>2018-08-05T00:10:41Z</time>
      </trkpt>
      <trkpt lat="49.08936" lon="1.7441">
        <ele>207</ele>
        <time>2018-08-05T00:11:41Z</time>
      </trkpt>
      <trkpt lat="49.08926" lon="1.74369">
        <ele>208</ele>
        <time>2018-08-05T00:12:41Z</time>
      </trkpt>
      <trkpt lat="49.08911" lon="1.74329">
        <ele>208</ele>
        <time>2018-08-05T00:13:41Z</time>
      </trkpt>
      <trkpt lat="49.08895" lon="1.74286">
        <ele>206</ele>
        <time>2018-08-05T00:14:41Z</time>
      </trkpt>
      <trkpt lat="49.08848" lon="1.74175">
        <ele>203</ele>
        <time>2018-08-05T00:15:41Z</time>
      </trkpt>
      <trkpt lat="49.08805" lon="1.74121">
        <ele>203</ele>
        <time>2018-08-05T00:16:41Z</time>
      </trkpt>
      <trkpt lat="49.08791" lon="1.74072">
        <ele>202</ele>
        <time>2018-08-05T00:17:41Z</time>
      </trkpt>
      <trkpt lat="49.08763" lon="1.73957">
        <ele>201</ele>
        <time>2018-08-05T00:18:41Z</time>
      </trkpt>
      <trkpt lat="49.08751" lon="1.7391">
        <ele>203</ele>
        <time>2018-08-05T00:19:41Z</time>
      </trkpt>
      <trkpt lat="49.08719" lon="1.73846">
        <ele>203</ele>
        <time>2018-08-05T00:20:41Z</time>
      </trkpt>
      <trkpt lat="49.08693" lon="1.73762">
        <ele>198</ele>
        <time>2018-08-05T00:21:41Z</time>
      </trkpt>
      <trkpt lat="49.08684" lon="1.73724">
        <ele>193</ele>
        <time>2018-08-05T00:22:41Z</time>
      </trkpt>
      <trkpt lat="49.08685" lon="1.73685">
        <ele>190</ele>
        <time>2018-08-05T00:23:41Z</time>
      </trkpt>
      <trkpt lat="49.08688" lon="1.73622">
        <ele>182</ele>
        <time>2018-08-05T00:24:41Z</time>
      </trkpt>
      <trkpt lat="49.08672" lon="1.73576">
        <ele>176</ele>
        <time>2018-08-05T00:25:41Z</time>
      </trkpt>
      <trkpt lat="49.08662" lon="1.73538">
        <ele>174</ele>
        <time>2018-08-05T00:26:41Z</time>
      </trkpt>
      <trkpt lat="49.08662" lon="1.73451">
        <ele>169</ele>
        <time>2018-08-05T00:27:41Z</time>
      </trkpt>
      <trkpt lat="49.08687" lon="1.73446">
        <ele>168</ele>
        <time>2018-08-05T00:28:41Z</time>
      </trkpt>
      <trkpt lat="49.08725" lon="1.73451">
        <ele>169</ele>
        <time>2018-08-05T00:29:41Z</time>
      </trkpt>
      <trkpt lat="49.08747" lon="1.73458">
        <ele>169</ele>
        <time>2018-08-05T00:30:41Z</time>
      </trkpt>
      <trkpt lat="49.08764" lon="1.73419">
        <ele>168</ele>
        <time>2018-08-05T00:31:41Z</time>
      </trkpt>
      <trkpt lat="49.08805" lon="1.73345">
        <ele>163</ele>
        <time>2018-08-05T00:32:41Z</time>
      </trkpt>
      <trkpt lat="49.08824" lon="1.73327">
        <ele>160</ele>
        <time>2018-08-05T00:33:41Z</time>
      </trkpt>
      <trkpt lat="49.08861" lon="1.73287">
        <ele>155</ele>
        <time>2018-08-05T00:34:41Z</time>
      </trkpt>
      <trkpt lat="49.08885" lon="1.73255">
        <ele>153</ele>
        <time>2018-08-05T00:35:41Z</time>
      </trkpt>
      <trkpt lat="49.08904" lon="1.7322">
        <ele>150</ele>
        <time>2018-08-05T00:36:41Z</time>
      </trkpt>
      <trkpt lat="49.08932" lon="1.7316">
        <ele>147</ele>
        <time>2018-08-05T00:37:41Z</time>
      </trkpt>
      <trkpt lat="49.0893" lon="1.73099">
        <ele>146</ele>
        <time>2018-08-05T00:38:41Z</time>
      </trkpt>
      <trkpt lat="49.08951" lon="1.73016">
        <ele>146</ele>
        <time>2018-08-05T00:39:41Z</time>
      </trkpt>
      <trkpt lat="49.08974" lon="1.72934">
        <ele>149</ele>
        <time>2018-08-05T00:40:41Z</time>
      </trkpt>
      <trkpt lat="49.09001" lon="1.72885">
        <ele>153</ele>
        <time>2018-08-05T00:41:41Z</time>
      </trkpt>
      <trkpt lat="49.09018" lon="1.72851">
        <ele>153</ele>
        <time>2018-08-05T00:42:41Z</time>
      </trkpt>
      <trkpt lat="49.0907" lon="1.72758">
        <ele>157</ele>
        <time>2018-08-05T00:43:41Z</time>
      </trkpt>
      <trkpt lat="49.09101" lon="1.72701">
        <ele>163</ele>
        <time>2018-08-05T00:44:41Z</time>
      </trkpt>
      <trkpt lat="49.09106" lon="1.72668">
        <ele>164</ele>
        <time>2018-08-05T00:45:41Z</time>
      </trkpt>
      <trkpt lat="49.09116" lon="1.72579">
        <ele>168</ele>
        <time>2018-08-05T00:46:41Z</time>
      </trkpt>
      <trkpt lat="49.09123" lon="1.72553">
        <ele>169</ele>
        <time>2018-08-05T00:47:41Z</time>
      </trkpt>
      <trkpt lat="49.09115" lon="1.72525">
        <ele>169</ele>
        <time>2018-08-05T00:48:41Z</time>
      </trkpt>
      <trkpt lat="49.09187" lon="1.72502">
        <ele>172.8</ele>
      </trkpt>
      <trkpt lat="49.09213" lon="1.72428">
        <ele>180.3</ele>
      </trkpt>
      <trkpt lat="49.09229" lon="1.72334">
        <ele>190</ele>
      </trkpt>
      <trkpt lat="49.09172" lon="1.72382">
        <ele>185.3</ele>
      </trkpt>
      <trkpt lat="49.09157" lon="1.72382">
        <ele>180</ele>
      </trkpt>
      <trkpt lat="49.09057" lon="1.72432">
        <ele>167</ele>
        <time>2018-08-05T00:51:41Z</time>
      </trkpt>
      <trkpt lat="49.08918" lon="1.72508">
        <ele>158</ele>
        <time>2018-08-05T00:53:41Z</time>
      </trkpt>
      <trkpt lat="49.08814" lon="1.72566">
        <ele>149</ele>
        <time>2018-08-05T00:54:41Z</time>
      </trkpt>
      <trkpt lat="49.08729" lon="1.72445">
        <ele>145</ele>
        <time>2018-08-05T00:56:41Z</time>
      </trkpt>
      <trkpt lat="49.08695" lon="1.72394">
        <ele>145</ele>
        <time>2018-08-05T00:57:41Z</time>
      </trkpt>
      <trkpt lat="49.08623" lon="1.72328">
        <ele>144</ele>
        <time>2018-08-05T00:59:41Z</time>
      </trkpt>
      <trkpt lat="49.08609" lon="1.72319">
        <ele>143</ele>
        <time>2018-08-05T01:00:41Z</time>
      </trkpt>
      <trkpt lat="49.08575" lon="1.72455">
        <ele>142</ele>
        <time>2018-08-05T01:01:41Z</time>
      </trkpt>
      <trkpt lat="49.08547" lon="1.72594">
        <ele>137</ele>
        <time>2018-08-05T01:02:41Z</time>
      </trkpt>
      <trkpt lat="49.08539" lon="1.72621">
        <ele>136</ele>
        <time>2018-08-05T01:03:41Z</time>
      </trkpt>
      <trkpt lat="49.08528" lon="1.72673">
        <ele>134</ele>
        <time>2018-08-05T01:04:41Z</time>
      </trkpt>
      <trkpt lat="49.08535" lon="1.72743">
        <ele>134</ele>
        <time>2018-08-05T01:05:41Z</time>
      </trkpt>
      <trkpt lat="49.08545" lon="1.72839">
        <ele>137</ele>
        <time>2018-08-05T01:06:41Z</time>
      </trkpt>
      <trkpt lat="49.08545" lon="1.72887">
        <ele>138</ele>
        <time>2018-08-05T01:07:41Z</time>
      </trkpt>
      <trkpt lat="49.08552" lon="1.72928">
        <ele>141</ele>
        <time>2018-08-05T01:08:41Z</time>
      </trkpt>
      <trkpt lat="49.08573" lon="1.72975">
        <ele>142</ele>
        <time>2018-08-05T01:09:41Z</time>
      </trkpt>
      <trkpt lat="49.08578" lon="1.73004">
        <ele>144</ele>
        <time>2018-08-05T01:10:41Z</time>
      </trkpt>
      <trkpt lat="49.0853" lon="1.73053">
        <ele>145</ele>
        <time>2018-08-05T01:11:41Z</time>
      </trkpt>
      <trkpt lat="49.08497" lon="1.73086">
        <ele>148</ele>
        <time>2018-08-05T01:12:41Z</time>
      </trkpt>
      <trkpt lat="49.08427" lon="1.73117">
        <ele>151</ele>
        <time>2018-08-05T01:13:41Z</time>
      </trkpt>
      <trkpt lat="49.08356" lon="1.73121">
        <ele>151</ele>
        <time>2018-08-05T01:14:41Z</time>
      </trkpt>
      <trkpt lat="49.08263" lon="1.73112">
        <ele>147</ele>
        <time>2018-08-05T01:15:41Z</time>
      </trkpt>
      <trkpt lat="49.08211" lon="1.7312">
        <ele>146</ele>
        <time>2018-08-05T01:16:41Z</time>
      </trkpt>
      <trkpt lat="49.08213" lon="1.73295">
        <ele>157</ele>
        <time>2018-08-05T01:17:41Z</time>
      </trkpt>
      <trkpt lat="49.08205" lon="1.73339">
        <ele>159</ele>
        <time>2018-08-05T01:18:41Z</time>
      </trkpt>
      <trkpt lat="49.08189" lon="1.73484">
        <ele>162</ele>
        <time>2018-08-05T01:19:41Z</time>
      </trkpt>
      <trkpt lat="49.08187" lon="1.73528">
        <ele>166</ele>
        <time>2018-08-05T01:20:41Z</time>
      </trkpt>
      <trkpt lat="49.08187" lon="1.73588">
        <ele>169</ele>
        <time>2018-08-05T01:21:41Z</time>
      </trkpt>
      <trkpt lat="49.08186" lon="1.73617">
        <ele>170</ele>
        <time>2018-08-05T01:22:41Z</time>
      </trkpt>
      <trkpt lat="49.08163" lon="1.73644">
        <ele>170</ele>
        <time>2018-08-05T01:23:41Z</time>
      </trkpt>
      <trkpt lat="49.08148" lon="1.73663">
        <ele>170</ele>
        <time>2018-08-05T01:24:41Z</time>
      </trkpt>
      <trkpt lat="49.08115" lon="1.73708">
        <ele>171</ele>
        <time>2018-08-05T01:25:41Z</time>
      </trkpt>
      <trkpt lat="49.08081" lon="1.73757">
        <ele>172</ele>
        <time>2018-08-05T01:26:41Z</time>
      </trkpt>
      <trkpt lat="49.08051" lon="1.73835">
        <ele>172</ele>
        <time>2018-08-05T01:27:41Z</time>
      </trkpt>
      <trkpt lat="49.08054" lon="1.73844">
        <ele>173</ele>
        <time>2018-08-05T01:28:41Z</time>
      </trkpt>
      <trkpt lat="49.08069" lon="1.73861">
        <ele>173</ele>
        <time>2018-08-05T01:29:41Z</time>
      </trkpt>
      <trkpt lat="49.08106" lon="1.73892">
        <ele>177</ele>
        <time>2018-08-05T01:30:41Z</time>
      </trkpt>
      <trkpt lat="49.08113" lon="1.73936">
        <ele>179</ele>
        <time>2018-08-05T01:31:41Z</time>
      </trkpt>
      <trkpt lat="49.08126" lon="1.74003">
        <ele>176</ele>
        <time>2018-08-05T01:32:41Z</time>
      </trkpt>
      <trkpt lat="49.08151" lon="1.74115">
        <ele>169</ele>
        <time>2018-08-05T01:33:41Z</time>
      </trkpt>
      <trkpt lat="49.08155" lon="1.74186">
        <ele>164</ele>
        <time>2018-08-05T01:34:41Z</time>
      </trkpt>
      <trkpt lat="49.0813" lon="1.74261">
        <ele>159</ele>
        <time>2018-08-05T01:35:41Z</time>
      </trkpt>
      <trkpt lat="49.08065" lon="1.74446">
        <ele>150</ele>
        <time>2018-08-05T01:36:41Z</time>
      </trkpt>
      <trkpt lat="49.08033" lon="1.7455">
        <ele>147</ele>
        <time>2018-08-05T01:37:41Z</time>
      </trkpt>
      <trkpt lat="49.08023" lon="1.7459">
        <ele>148</ele>
        <time>2018-08-05T01:38:41Z</time>
      </trkpt>
      <trkpt lat="49.08033" lon="1.74608">
        <ele>149</ele>
        <time>2018-08-05T01:39:41Z</time>
      </trkpt>
      <trkpt lat="49.08033" lon="1.74646">
        <ele>150</ele>
        <time>2018-08-05T01:40:41Z</time>
      </trkpt>
      <trkpt lat="49.08023" lon="1.74719">
        <ele>155</ele>
        <time>2018-08-05T01:41:41Z</time>
      </trkpt>
      <trkpt lat="49.08066" lon="1.74778">
        <ele>162</ele>
        <time>2018-08-05T01:42:41Z</time>
      </trkpt>
      <trkpt lat="49.08123" lon="1.74857">
        <ele>172</ele>
        <time>2018-08-05T01:43:41Z</time>
      </trkpt>
      <trkpt lat="49.08148" lon="1.74891">
        <ele>174</ele>
        <time>2018-08-05T01:44:41Z</time>
      </trkpt>
      <trkpt lat="49.08148" lon="1.74922">
        <ele>177</ele>
        <time>2018-08-05T01:45:41Z</time>
      </trkpt>
      <trkpt lat="49.08156" lon="1.74962">
        <ele>178</ele>
        <time>2018-08-05T01:46:41Z</time>
      </trkpt>
      <trkpt lat="49.08169" lon="1.75023">
        <ele>184</ele>
        <time>2018-08-05T01:47:41Z</time>
      </trkpt>
      <trkpt lat="49.08175" lon="1.75089">
        <ele>187</ele>
        <time>2018-08-05T01:48:41Z</time>
      </trkpt>
      <trkpt lat="49.08178" lon="1.75139">
        <ele>189</ele>
        <time>2018-08-05T01:49:41Z</time>
      </trkpt>
      <trkpt lat="49.08185" lon="1.75172">
        <ele>191</ele>
        <time>2018-08-05T01:50:41Z</time>
      </trkpt>
      <trkpt lat="49.08234" lon="1.75221">
        <ele>196</ele>
        <time>2018-08-05T01:51:41Z</time>
      </trkpt>
      <trkpt lat="49.08255" lon="1.75242">
        <ele>200</ele>
        <time>2018-08-05T01:52:41Z</time>
      </trkpt>
      <trkpt lat="49.08295" lon="1.75268">
        <ele>202</ele>
        <time>2018-08-05T01:53:41Z</time>
      </trkpt>
      <trkpt lat="49.08319" lon="1.75277">
        <ele>202</ele>
        <time>2018-08-05T01:54:41Z</time>
      </trkpt>
      <trkpt lat="49.08354" lon="1.75293">
        <ele>204</ele>
        <time>2018-08-05T01:55:41Z</time>
      </trkpt>
      <trkpt lat="49.08375" lon="1.75305">
        <ele>204</ele>
        <time>2018-08-05T01:56:41Z</time>
      </trkpt>
      <trkpt lat="49.08408" lon="1.75318">
        <ele>205</ele>
        <time>2018-08-05T01:57:41Z</time>
      </trkpt>
      <trkpt lat="49.0843" lon="1.75328">
        <ele>206</ele>
        <time>2018-08-05T01:58:41Z</time>
      </trkpt>
      <trkpt lat="49.08452" lon="1.75333">
        <ele>206</ele>
        <time>2018-08-05T01:59:41Z</time>
      </trkpt>
      <trkpt lat="49.08498" lon="1.75335">
        <ele>207</ele>
        <time>2018-08-05T02:00:41Z</time>
      </trkpt>
      <trkpt lat="49.08558" lon="1.7533">
        <ele>207</ele>
        <time>2018-08-05T02:01:41Z</time>
      </trkpt>
      <trkpt lat="49.08632" lon="1.75402">
        <ele>206</ele>
        <time>2018-08-05T02:02:41Z</time>
      </trkpt>
      <trkpt lat="49.08706" lon="1.75443">
        <ele>210</ele>
        <time>2018-08-05T02:03:41Z</time>
      </trkpt>
      <trkpt lat="49.08736" lon="1.75463">
        <ele>211</ele>
        <time>2018-08-05T02:04:41Z</time>
      </trkpt>
      <trkpt lat="49.08767" lon="1.75478">
        <ele>210</ele>
        <time>2018-08-05T02:05:41Z</time>
      </trkpt>
      <trkpt lat="49.08779" lon="1.75495">
        <ele>210</ele>
        <time>2018-08-05T02:06:41Z</time>
      </trkpt>
      <trkpt lat="49.0878" lon="1.75539">
        <ele>214</ele>
        <time>2018-08-05T02:07:41Z</time>
      </trkpt>
      <trkpt lat="49.08788" lon="1.75576">
        <ele>214</ele>
        <time>2018-08-05T02:08:41Z</time>
      </trkpt>
      <trkpt lat="49.08797" lon="1.75617">
        <ele>215</ele>
        <time>2018-08-05T02:09:41Z</time>
      </trkpt>
      <trkpt lat="49.08822" lon="1.7565">
        <ele>215</ele>
        <time>2018-08-05T02:10:41Z</time>
      </trkpt>
      <trkpt lat="49.08842" lon="1.75657">
        <ele>215</ele>
        <time>2018-08-05T02:11:41Z</time>
      </trkpt>
      <trkpt lat="49.08923" lon="1.75675">
        <ele>214</ele>
        <time>2018-08-05T02:12:41Z</time>
      </trkpt>
      <trkpt lat="49.09011" lon="1.75701">
        <ele>214</ele>
        <time>2018-08-05T02:13:41Z</time>
      </trkpt>
      <trkpt lat="49.09018" lon="1.75761">
        <ele>214</ele>
        <time>2018-08-05T02:14:41Z</time>
      </trkpt>
      <trkpt lat="49.09024" lon="1.75839">
        <ele>214</ele>
        <time>2018-08-05T02:15:41Z</time>
      </trkpt>
      <trkpt lat="49.09034" lon="1.75972">
        <ele>213</ele>
        <time>2018-08-05T02:16:41Z</time>
      </trkpt>
      <trkpt lat="49.09046" lon="1.76096">
        <ele>210</ele>
        <time>2018-08-05T02:17:41Z</time>
      </trkpt>
      <trkpt lat="49.09055" lon="1.76163">
        <ele>209</ele>
        <time>2018-08-05T02:18:41Z</time>
      </trkpt>
      <trkpt lat="49.09091" lon="1.7624">
        <ele>205</ele>
        <time>2018-08-05T02:19:41Z</time>
      </trkpt>
      <trkpt lat="49.09129" lon="1.76336">
        <ele>201</ele>
        <time>2018-08-05T02:20:41Z</time>
      </trkpt>
      <trkpt lat="49.09161" lon="1.7645">
        <ele>201</ele>
        <time>2018-08-05T02:21:41Z</time>
      </trkpt>
      <trkpt lat="49.09193" lon="1.76562">
        <ele>202</ele>
        <time>2018-08-05T02:22:41Z</time>
      </trkpt>
      <trkpt lat="49.09212" lon="1.76613">
        <ele>202</ele>
        <time>2018-08-05T02:23:41Z</time>
      </trkpt>
      <trkpt lat="49.09248" lon="1.76697">
        <ele>201</ele>
        <time>2018-08-05T02:24:41Z</time>
      </trkpt>
      <trkpt lat="49.09298" lon="1.76842">
        <ele>201</ele>
        <time>2018-08-05T02:25:41Z</time>
      </trkpt>
      <trkpt lat="49.09335" lon="1.76939">
        <ele>199</ele>
        <time>2018-08-05T02:26:41Z</time>
      </trkpt>
      <trkpt lat="49.09337" lon="1.76954">
        <ele>199</ele>
        <time>2018-08-05T02:27:41Z</time>
      </trkpt>
      <trkpt lat="49.09277" lon="1.7697">
        <ele>197</ele>
        <time>2018-08-05T02:28:41Z</time>
      </trkpt>
      <trkpt lat="49.09226" lon="1.76976">
        <ele>197</ele>
        <time>2018-08-05T02:29:41Z</time>
      </trkpt>
      <trkpt lat="49.09171" lon="1.76979">
        <ele>198</ele>
        <time>2018-08-05T02:30:41Z</time>
      </trkpt>
      <trkpt lat="49.09113" lon="1.7699">
        <ele>200</ele>
        <time>2018-08-05T02:31:41Z</time>
      </trkpt>
      <trkpt lat="49.09093" lon="1.76993">
        <ele>201</ele>
        <time>2018-08-05T02:32:41Z</time>
      </trkpt>
      <trkpt lat="49.09055" lon="1.77006">
        <ele>200</ele>
        <time>2018-08-05T02:33:41Z</time>
      </trkpt>
      <trkpt lat="49.09015" lon="1.77014">
        <ele>200</ele>
        <time>2018-08-05T02:34:41Z</time>
      </trkpt>
      <trkpt lat="49.08984" lon="1.7702">
        <ele>201</ele>
        <time>2018-08-05T02:35:41Z</time>
      </trkpt>
      <trkpt lat="49.08936" lon="1.7703">
        <ele>202</ele>
        <time>2018-08-05T02:36:41Z</time>
      </trkpt>
      <trkpt lat="49.08794" lon="1.77064">
        <ele>204</ele>
        <time>2018-08-05T02:37:41Z</time>
      </trkpt>
      <trkpt lat="49.08843" lon="1.77073">
        <ele>204</ele>
        <time>2018-08-05T02:38:41Z</time>
      </trkpt>
      <trkpt lat="49.08879" lon="1.77129">
        <ele>203</ele>
        <time>2018-08-05T02:39:41Z</time>
      </trkpt>
      <trkpt lat="49.08914" lon="1.77185">
        <ele>203</ele>
        <time>2018-08-05T02:40:41Z</time>
      </trkpt>
      <trkpt lat="49.08945" lon="1.77219">
        <ele>202</ele>
        <time>2018-08-05T02:41:41Z</time>
      </trkpt>
      <trkpt lat="49.08978" lon="1.77239">
        <ele>202</ele>
        <time>2018-08-05T02:42:41Z</time>
      </trkpt>
      <trkpt lat="49.08986" lon="1.77271">
        <ele>203</ele>
        <time>2018-08-05T02:43:41Z</time>
      </trkpt>
      <trkpt lat="49.08989" lon="1.77298">
        <ele>203</ele>
        <time>2018-08-05T02:44:41Z</time>
      </trkpt>
      <trkpt lat="49.08992" lon="1.77342">
        <ele>204</ele>
        <time>2018-08-05T02:45:41Z</time>
      </trkpt>
      <trkpt lat="49.08995" lon="1.77401">
        <ele>204</ele>
        <time>2018-08-05T02:46:41Z</time>
      </trkpt>
      <trkpt lat="49.08988" lon="1.77504">
        <ele>200</ele>
        <time>2018-08-05T02:47:41Z</time>
      </trkpt>
      <trkpt lat="49.08986" lon="1.77585">
        <ele>201</ele>
        <time>2018-08-05T02:48:41Z</time>
      </trkpt>
      <trkpt lat="49.08985" lon="1.77637">
        <ele>202</ele>
        <time>2018-08-05T02:49:41Z</time>
      </trkpt>
      <trkpt lat="49.08984" lon="1.77763">
        <ele>205</ele>
        <time>2018-08-05T02:50:41Z</time>
      </trkpt>
      <trkpt lat="49.09" lon="1.77858">
        <ele>205</ele>
        <time>2018-08-05T02:51:41Z</time>
      </trkpt>
      <trkpt lat="49.09007" lon="1.78007">
        <ele>208</ele>
        <time>2018-08-05T02:52:41Z</time>
      </trkpt>
      <trkpt lat="49.09006" lon="1.78056">
        <ele>207</ele>
        <time>2018-08-05T02:53:41Z</time>
      </trkpt>
      <trkpt lat="49.09001" lon="1.78103">
        <ele>207</ele>
        <time>2018-08-05T02:54:41Z</time>
      </trkpt>
      <trkpt lat="49.09007" lon="1.78189">
        <ele>206</ele>
        <time>2018-08-05T02:55:41Z</time>
      </trkpt>
      <trkpt lat="49.09011" lon="1.78259">
        <ele>206</ele>
        <time>2018-08-05T02:56:41Z</time>
      </trkpt>
      <trkpt lat="49.09025" lon="1.78436">
        <ele>206</ele>
        <time>2018-08-05T02:57:41Z</time>
      </trkpt>
      <trkpt lat="49.09034" lon="1.78547">
        <ele>207</ele>
        <time>2018-08-05T02:58:41Z</time>
      </trkpt>
      <trkpt lat="49.09044" lon="1.78716">
        <ele>205</ele>
        <time>2018-08-05T02:59:41Z</time>
      </trkpt>
      <trkpt lat="49.09041" lon="1.78763">
        <ele>202</ele>
        <time>2018-08-05T03:00:41Z</time>
      </trkpt>
      <trkpt lat="49.09046" lon="1.78807">
        <ele>201</ele>
        <time>2018-08-05T03:01:41Z</time>
      </trkpt>
      <trkpt lat="49.09052" lon="1.78848">
        <ele>198</ele>
        <time>2018-08-05T03:02:41Z</time>
      </trkpt>
      <trkpt lat="49.09063" lon="1.78961">
        <ele>196</ele>
        <time>2018-08-05T03:03:41Z</time>
      </trkpt>
      <trkpt lat="49.0907" lon="1.79038">
        <ele>195</ele>
        <time>2018-08-05T03:04:41Z</time>
      </trkpt>
      <trkpt lat="49.09081" lon="1.79094">
        <ele>195</ele>
        <time>2018-08-05T03:05:41Z</time>
      </trkpt>
      <trkpt lat="49.09094" lon="1.7917">
        <ele>195</ele>
        <time>2018-08-05T03:06:41Z</time>
      </trkpt>
      <trkpt lat="49.09108" lon="1.79198">
        <ele>196</ele>
        <time>2018-08-05T03:07:41Z</time>
      </trkpt>
      <trkpt lat="49.09124" lon="1.79229">
        <ele>195</ele>
        <time>2018-08-05T03:08:41Z</time>
      </trkpt>
      <trkpt lat="49.09154" lon="1.79253">
        <ele>194</ele>
        <time>2018-08-05T03:09:41Z</time>
      </trkpt>
      <trkpt lat="49.0917" lon="1.79265">
        <ele>194</ele>
        <time>2018-08-05T03:10:41Z</time>
      </trkpt>
      <trkpt lat="49.0921" lon="1.79294">
        <ele>190</ele>
        <time>2018-08-05T03:11:41Z</time>
      </trkpt>
      <trkpt lat="49.09233" lon="1.79261">
        <ele>191</ele>
        <time>2018-08-05T03:12:41Z</time>
      </trkpt>
      <trkpt lat="49.0926" lon="1.79237">
        <ele>188</ele>
        <time>2018-08-05T03:13:41Z</time>
      </trkpt>
      <trkpt lat="49.09272" lon="1.79189">
        <ele>188</ele>
        <time>2018-08-05T03:14:41Z</time>
      </trkpt>
      <trkpt lat="49.09288" lon="1.79135">
        <ele>189</ele>
        <time>2018-08-05T03:15:41Z</time>
      </trkpt>
      <trkpt lat="49.09302" lon="1.7905">
        <ele>189</ele>
        <time>2018-08-05T03:16:41Z</time>
      </trkpt>
      <trkpt lat="49.09314" lon="1.78979">
        <ele>188</ele>
        <time>2018-08-05T03:17:41Z</time>
      </trkpt>
      <trkpt lat="49.09325" lon="1.78968">
        <ele>188</ele>
        <time>2018-08-05T03:18:41Z</time>
      </trkpt>
      <trkpt lat="49.09348" lon="1.78961">
        <ele>179</ele>
        <time>2018-08-05T03:19:41Z</time>
      </trkpt>
      <trkpt lat="49.09397" lon="1.78978">
        <ele>176</ele>
        <time>2018-08-05T03:20:41Z</time>
      </trkpt>
      <trkpt lat="49.09411" lon="1.78962">
        <ele>176</ele>
        <time>2018-08-05T03:21:41Z</time>
      </trkpt>
    </trkseg>
  </trk>
</gpx>